sensor_id;sensor_type;location;lat;lon;timestamp;temperature;humidity
7232;DHT22;3657;49.630;11.018;2022-12-07T00:01:04;3.00;99.90
7232;DHT22;3657;49.630;11.018;2022-12-07T00:03:31;3.00;99.90
7232;DHT22;3657;49.630;11.018;2022-12-07T00:05:59;3.10;99.90
7232;DHT22;3657;49.630;11.018;2022-12-07T00:08:26;3.00;99.90
7232;DHT22;3657;49.630;11.018;2022-12-07T00:10:53;3.00;99.90
7232;DHT22;3657;49.630;11.018;2022-12-07T00:13:20;3.00;99.90
7232;DHT22;3657;49.630;11.018;2022-12-07T00:15:46;3.00;99.90
7232;DHT22;3657;49.630;11.018;2022-12-07T00:18:13;3.00;99.90
7232;DHT22;3657;49.630;11.018;2022-12-07T00:20:40;3.00;99.90
7232;DHT22;3657;49.630;11.018;2022-12-07T00:23:08;3.00;99.90
7232;DHT22;3657;49.630;11.018;2022-12-07T00:25:35;3.00;99.90
7232;DHT22;3657;49.630;11.018;2022-12-07T00:28:01;3.00;99.90
7232;DHT22;3657;49.630;11.018;2022-12-07T00:30:28;3.00;99.90
7232;DHT22;3657;49.630;11.018;2022-12-07T00:32:55;3.00;99.90
7232;DHT22;3657;49.630;11.018;2022-12-07T00:35:21;3.00;99.90
7232;DHT22;3657;49.630;11.018;2022-12-07T00:37:48;3.00;99.90
7232;DHT22;3657;49.630;11.018;2022-12-07T00:40:16;3.00;99.90
7232;DHT22;3657;49.630;11.018;2022-12-07T00:42:43;3.00;99.90
7232;DHT22;3657;49.630;11.018;2022-12-07T00:45:10;3.00;99.90
7232;DHT22;3657;49.630;11.018;2022-12-07T00:47:36;3.00;99.90
7232;DHT22;3657;49.630;11.018;2022-12-07T00:50:04;3.00;99.90
7232;DHT22;3657;49.630;11.018;2022-12-07T00:52:31;3.00;99.90
7232;DHT22;3657;49.630;11.018;2022-12-07T00:54:58;3.00;99.90
7232;DHT22;3657;49.630;11.018;2022-12-07T00:57:26;3.00;99.90
7232;DHT22;3657;49.630;11.018;2022-12-07T00:59:52;2.90;99.90
7232;DHT22;3657;49.630;11.018;2022-12-07T01:02:20;2.90;99.90
7232;DHT22;3657;49.630;11.018;2022-12-07T01:04:47;2.90;99.90
7232;DHT22;3657;49.630;11.018;2022-12-07T01:07:14;3.00;99.90
7232;DHT22;3657;49.630;11.018;2022-12-07T01:09:41;2.90;99.90
7232;DHT22;3657;49.630;11.018;2022-12-07T01:12:07;2.90;99.90
7232;DHT22;3657;49.630;11.018;2022-12-07T01:14:35;3.00;99.90
7232;DHT22;3657;49.630;11.018;2022-12-07T01:17:02;3.00;99.90
7232;DHT22;3657;49.630;11.018;2022-12-07T01:19:29;3.00;99.90
7232;DHT22;3657;49.630;11.018;2022-12-07T01:21:56;3.00;99.90
7232;DHT22;3657;49.630;11.018;2022-12-07T01:24:22;3.00;99.90
7232;DHT22;3657;49.630;11.018;2022-12-07T01:26:49;3.00;99.90
7232;DHT22;3657;49.630;11.018;2022-12-07T01:29:16;2.90;99.90
7232;DHT22;3657;49.630;11.018;2022-12-07T01:31:44;3.00;99.90
7232;DHT22;3657;49.630;11.018;2022-12-07T01:34:10;2.90;99.90
7232;DHT22;3657;49.630;11.018;2022-12-07T01:36:38;2.90;99.90
7232;DHT22;3657;49.630;11.018;2022-12-07T01:39:06;2.90;99.90
7232;DHT22;3657;49.630;11.018;2022-12-07T01:41:35;2.90;99.90
7232;DHT22;3657;49.630;11.018;2022-12-07T01:44:12;2.90;99.90
7232;DHT22;3657;49.630;11.018;2022-12-07T01:46:39;2.90;99.90
7232;DHT22;3657;49.630;11.018;2022-12-07T01:49:11;2.90;99.90
7232;DHT22;3657;49.630;11.018;2022-12-07T01:51:40;2.90;99.90
7232;DHT22;3657;49.630;11.018;2022-12-07T01:54:09;2.90;99.90
7232;DHT22;3657;49.630;11.018;2022-12-07T01:56:40;2.90;99.90
7232;DHT22;3657;49.630;11.018;2022-12-07T01:59:07;2.90;99.90
7232;DHT22;3657;49.630;11.018;2022-12-07T02:01:34;2.90;99.90
7232;DHT22;3657;49.630;11.018;2022-12-07T02:04:01;2.90;99.90
7232;DHT22;3657;49.630;11.018;2022-12-07T02:06:30;2.90;99.90
7232;DHT22;3657;49.630;11.018;2022-12-07T02:08:57;2.90;99.90
7232;DHT22;3657;49.630;11.018;2022-12-07T02:11:23;2.90;99.90
7232;DHT22;3657;49.630;11.018;2022-12-07T02:13:51;2.90;99.90
7232;DHT22;3657;49.630;11.018;2022-12-07T02:16:27;2.80;99.90
7232;DHT22;3657;49.630;11.018;2022-12-07T02:22:15;2.80;99.90
7232;DHT22;3657;49.630;11.018;2022-12-07T02:24:51;2.90;99.90
7232;DHT22;3657;49.630;11.018;2022-12-07T02:27:33;2.90;99.90
7232;DHT22;3657;49.630;11.018;2022-12-07T02:30:04;2.80;99.90
7232;DHT22;3657;49.630;11.018;2022-12-07T02:32:43;2.90;99.90
7232;DHT22;3657;49.630;11.018;2022-12-07T02:35:15;2.90;99.90
7232;DHT22;3657;49.630;11.018;2022-12-07T02:37:50;2.80;99.90
7232;DHT22;3657;49.630;11.018;2022-12-07T02:42:55;2.80;99.90
7232;DHT22;3657;49.630;11.018;2022-12-07T02:45:27;2.80;99.90
7232;DHT22;3657;49.630;11.018;2022-12-07T02:47:57;2.80;99.90
7232;DHT22;3657;49.630;11.018;2022-12-07T02:50:26;2.80;99.90
7232;DHT22;3657;49.630;11.018;2022-12-07T02:52:53;2.80;99.90
7232;DHT22;3657;49.630;11.018;2022-12-07T02:55:25;2.80;99.90
7232;DHT22;3657;49.630;11.018;2022-12-07T02:58:11;2.80;99.90
7232;DHT22;3657;49.630;11.018;2022-12-07T03:00:51;2.80;99.90
7232;DHT22;3657;49.630;11.018;2022-12-07T03:03:18;2.80;99.90
7232;DHT22;3657;49.630;11.018;2022-12-07T03:05:54;2.80;99.90
7232;DHT22;3657;49.630;11.018;2022-12-07T03:08:31;2.70;99.90
7232;DHT22;3657;49.630;11.018;2022-12-07T03:11:05;2.70;99.90
7232;DHT22;3657;49.630;11.018;2022-12-07T03:13:38;2.70;99.90
7232;DHT22;3657;49.630;11.018;2022-12-07T03:16:12;2.70;99.90
7232;DHT22;3657;49.630;11.018;2022-12-07T03:18:44;2.70;99.90
7232;DHT22;3657;49.630;11.018;2022-12-07T03:21:16;2.70;99.90
7232;DHT22;3657;49.630;11.018;2022-12-07T03:23:48;2.70;99.90
7232;DHT22;3657;49.630;11.018;2022-12-07T03:26:17;2.70;99.90
7232;DHT22;3657;49.630;11.018;2022-12-07T03:28:49;2.70;99.90
7232;DHT22;3657;49.630;11.018;2022-12-07T03:31:19;2.70;99.90
7232;DHT22;3657;49.630;11.018;2022-12-07T03:33:51;2.70;99.90
7232;DHT22;3657;49.630;11.018;2022-12-07T03:36:23;2.70;99.90
7232;DHT22;3657;49.630;11.018;2022-12-07T03:38:56;2.70;99.90
7232;DHT22;3657;49.630;11.018;2022-12-07T03:41:27;2.70;99.90
7232;DHT22;3657;49.630;11.018;2022-12-07T03:43:56;2.60;99.90
7232;DHT22;3657;49.630;11.018;2022-12-07T03:46:32;2.60;99.90
7232;DHT22;3657;49.630;11.018;2022-12-07T03:49:06;2.60;99.90
7232;DHT22;3657;49.630;11.018;2022-12-07T03:51:39;2.60;99.90
7232;DHT22;3657;49.630;11.018;2022-12-07T03:54:11;2.60;99.90
7232;DHT22;3657;49.630;11.018;2022-12-07T03:56:40;2.60;99.90
7232;DHT22;3657;49.630;11.018;2022-12-07T03:59:08;2.60;99.90
7232;DHT22;3657;49.630;11.018;2022-12-07T04:01:37;2.60;99.90
7232;DHT22;3657;49.630;11.018;2022-12-07T04:04:04;2.60;99.90
7232;DHT22;3657;49.630;11.018;2022-12-07T04:06:30;2.60;99.90
7232;DHT22;3657;49.630;11.018;2022-12-07T04:08:57;2.60;99.90
7232;DHT22;3657;49.630;11.018;2022-12-07T04:11:24;2.60;99.90
7232;DHT22;3657;49.630;11.018;2022-12-07T04:13:50;2.60;99.90
7232;DHT22;3657;49.630;11.018;2022-12-07T04:16:36;2.60;99.90
7232;DHT22;3657;49.630;11.018;2022-12-07T04:19:03;2.60;99.90
7232;DHT22;3657;49.630;11.018;2022-12-07T04:21:29;2.60;99.90
7232;DHT22;3657;49.630;11.018;2022-12-07T04:23:56;2.50;99.90
7232;DHT22;3657;49.630;11.018;2022-12-07T04:26:23;2.60;99.90
7232;DHT22;3657;49.630;11.018;2022-12-07T04:28:50;2.60;99.90
7232;DHT22;3657;49.630;11.018;2022-12-07T04:31:16;2.50;99.90
7232;DHT22;3657;49.630;11.018;2022-12-07T04:33:44;2.50;99.90
7232;DHT22;3657;49.630;11.018;2022-12-07T04:36:11;2.50;99.90
7232;DHT22;3657;49.630;11.018;2022-12-07T04:38:38;2.50;99.90
7232;DHT22;3657;49.630;11.018;2022-12-07T04:41:05;2.50;99.90
7232;DHT22;3657;49.630;11.018;2022-12-07T04:43:32;2.50;99.90
7232;DHT22;3657;49.630;11.018;2022-12-07T04:45:59;2.50;99.90
7232;DHT22;3657;49.630;11.018;2022-12-07T04:48:26;2.40;99.90
7232;DHT22;3657;49.630;11.018;2022-12-07T04:50:54;2.50;99.90
7232;DHT22;3657;49.630;11.018;2022-12-07T04:53:21;2.50;99.90
7232;DHT22;3657;49.630;11.018;2022-12-07T04:55:48;2.40;99.90
7232;DHT22;3657;49.630;11.018;2022-12-07T04:58:15;2.40;99.90
7232;DHT22;3657;49.630;11.018;2022-12-07T05:00:41;2.40;99.90
7232;DHT22;3657;49.630;11.018;2022-12-07T05:03:08;2.40;99.90
7232;DHT22;3657;49.630;11.018;2022-12-07T05:05:35;2.40;99.90
7232;DHT22;3657;49.630;11.018;2022-12-07T05:08:03;2.40;99.90
7232;DHT22;3657;49.630;11.018;2022-12-07T05:10:30;2.40;99.90
7232;DHT22;3657;49.630;11.018;2022-12-07T05:12:56;2.40;99.90
7232;DHT22;3657;49.630;11.018;2022-12-07T05:15:23;2.30;99.90
7232;DHT22;3657;49.630;11.018;2022-12-07T05:17:50;2.30;99.90
7232;DHT22;3657;49.630;11.018;2022-12-07T05:20:17;2.30;99.90
7232;DHT22;3657;49.630;11.018;2022-12-07T05:22:44;2.30;99.90
7232;DHT22;3657;49.630;11.018;2022-12-07T05:25:12;2.30;99.90
7232;DHT22;3657;49.630;11.018;2022-12-07T05:27:39;2.30;99.90
7232;DHT22;3657;49.630;11.018;2022-12-07T05:30:06;2.30;99.90
7232;DHT22;3657;49.630;11.018;2022-12-07T05:32:33;2.30;99.90
7232;DHT22;3657;49.630;11.018;2022-12-07T05:35:00;2.30;99.90
7232;DHT22;3657;49.630;11.018;2022-12-07T05:37:27;2.40;99.90
7232;DHT22;3657;49.630;11.018;2022-12-07T05:39:53;2.40;99.90
7232;DHT22;3657;49.630;11.018;2022-12-07T05:42:21;2.40;99.90
7232;DHT22;3657;49.630;11.018;2022-12-07T05:44:48;2.40;99.90
7232;DHT22;3657;49.630;11.018;2022-12-07T05:47:15;2.40;99.90
7232;DHT22;3657;49.630;11.018;2022-12-07T05:49:42;2.40;99.90
7232;DHT22;3657;49.630;11.018;2022-12-07T05:52:09;2.30;99.90
7232;DHT22;3657;49.630;11.018;2022-12-07T05:54:36;2.30;99.90
7232;DHT22;3657;49.630;11.018;2022-12-07T05:57:03;2.30;99.90
7232;DHT22;3657;49.630;11.018;2022-12-07T05:59:31;2.30;99.90
7232;DHT22;3657;49.630;11.018;2022-12-07T06:01:57;2.30;99.90
7232;DHT22;3657;49.630;11.018;2022-12-07T06:04:26;2.30;99.90
7232;DHT22;3657;49.630;11.018;2022-12-07T06:06:53;2.30;99.90
7232;DHT22;3657;49.630;11.018;2022-12-07T06:09:21;2.30;99.90
7232;DHT22;3657;49.630;11.018;2022-12-07T06:11:48;2.30;99.90
7232;DHT22;3657;49.630;11.018;2022-12-07T06:14:33;2.30;99.90
7232;DHT22;3657;49.630;11.018;2022-12-07T06:17:00;2.30;99.90
7232;DHT22;3657;49.630;11.018;2022-12-07T06:19:27;2.30;99.90
7232;DHT22;3657;49.630;11.018;2022-12-07T06:21:54;2.30;99.90
7232;DHT22;3657;49.630;11.018;2022-12-07T06:24:21;2.30;99.90
7232;DHT22;3657;49.630;11.018;2022-12-07T06:26:49;2.30;99.90
7232;DHT22;3657;49.630;11.018;2022-12-07T06:29:17;2.30;99.90
7232;DHT22;3657;49.630;11.018;2022-12-07T06:31:45;2.30;99.90
7232;DHT22;3657;49.630;11.018;2022-12-07T06:34:13;2.30;99.90
7232;DHT22;3657;49.630;11.018;2022-12-07T06:36:40;2.30;99.90
7232;DHT22;3657;49.630;11.018;2022-12-07T06:39:07;2.30;99.90
7232;DHT22;3657;49.630;11.018;2022-12-07T06:41:35;2.30;99.90
7232;DHT22;3657;49.630;11.018;2022-12-07T06:44:02;2.30;99.90
7232;DHT22;3657;49.630;11.018;2022-12-07T06:46:29;2.30;99.90
7232;DHT22;3657;49.630;11.018;2022-12-07T06:48:57;2.20;99.90
7232;DHT22;3657;49.630;11.018;2022-12-07T06:51:24;2.20;99.90
7232;DHT22;3657;49.630;11.018;2022-12-07T06:53:51;2.30;99.90
7232;DHT22;3657;49.630;11.018;2022-12-07T06:56:18;2.30;99.90
7232;DHT22;3657;49.630;11.018;2022-12-07T06:58:44;2.30;99.90
7232;DHT22;3657;49.630;11.018;2022-12-07T07:01:13;2.30;99.90
7232;DHT22;3657;49.630;11.018;2022-12-07T07:03:40;2.30;99.90
7232;DHT22;3657;49.630;11.018;2022-12-07T07:06:08;2.30;99.90
7232;DHT22;3657;49.630;11.018;2022-12-07T07:08:35;2.30;99.90
7232;DHT22;3657;49.630;11.018;2022-12-07T07:11:03;2.30;99.90
7232;DHT22;3657;49.630;11.018;2022-12-07T07:13:30;2.30;99.90
7232;DHT22;3657;49.630;11.018;2022-12-07T07:15:56;2.30;99.90
7232;DHT22;3657;49.630;11.018;2022-12-07T07:18:23;2.30;99.90
7232;DHT22;3657;49.630;11.018;2022-12-07T07:20:51;2.30;99.90
7232;DHT22;3657;49.630;11.018;2022-12-07T07:23:19;2.30;99.90
7232;DHT22;3657;49.630;11.018;2022-12-07T07:25:46;2.30;99.90
7232;DHT22;3657;49.630;11.018;2022-12-07T07:28:13;2.30;99.90
7232;DHT22;3657;49.630;11.018;2022-12-07T07:30:40;2.30;99.90
7232;DHT22;3657;49.630;11.018;2022-12-07T07:33:08;2.30;99.90
7232;DHT22;3657;49.630;11.018;2022-12-07T07:35:35;2.30;99.90
7232;DHT22;3657;49.630;11.018;2022-12-07T07:38:02;2.30;99.90
7232;DHT22;3657;49.630;11.018;2022-12-07T07:40:30;2.30;99.90
7232;DHT22;3657;49.630;11.018;2022-12-07T07:42:58;2.30;99.90
7232;DHT22;3657;49.630;11.018;2022-12-07T07:45:25;2.30;99.90
7232;DHT22;3657;49.630;11.018;2022-12-07T07:47:53;2.30;99.90
7232;DHT22;3657;49.630;11.018;2022-12-07T07:50:20;2.40;99.90
7232;DHT22;3657;49.630;11.018;2022-12-07T07:52:47;2.40;99.90
7232;DHT22;3657;49.630;11.018;2022-12-07T07:55:14;2.40;99.90
7232;DHT22;3657;49.630;11.018;2022-12-07T07:57:42;2.40;99.90
7232;DHT22;3657;49.630;11.018;2022-12-07T08:00:11;2.40;99.90
7232;DHT22;3657;49.630;11.018;2022-12-07T08:02:39;2.40;99.90
7232;DHT22;3657;49.630;11.018;2022-12-07T08:05:06;2.40;99.90
7232;DHT22;3657;49.630;11.018;2022-12-07T08:07:33;2.40;99.90
7232;DHT22;3657;49.630;11.018;2022-12-07T08:10:00;2.40;99.90
7232;DHT22;3657;49.630;11.018;2022-12-07T08:12:27;2.40;99.90
7232;DHT22;3657;49.630;11.018;2022-12-07T08:14:55;2.40;99.90
7232;DHT22;3657;49.630;11.018;2022-12-07T08:17:21;2.40;99.90
7232;DHT22;3657;49.630;11.018;2022-12-07T08:19:48;2.40;99.90
7232;DHT22;3657;49.630;11.018;2022-12-07T08:22:15;2.40;99.90
7232;DHT22;3657;49.630;11.018;2022-12-07T08:24:41;2.40;99.90
7232;DHT22;3657;49.630;11.018;2022-12-07T08:27:08;2.50;99.90
7232;DHT22;3657;49.630;11.018;2022-12-07T08:29:35;2.50;99.90
7232;DHT22;3657;49.630;11.018;2022-12-07T08:32:03;2.50;99.90
7232;DHT22;3657;49.630;11.018;2022-12-07T08:34:30;2.50;99.90
7232;DHT22;3657;49.630;11.018;2022-12-07T08:36:57;2.40;99.90
7232;DHT22;3657;49.630;11.018;2022-12-07T08:39:23;2.50;99.90
7232;DHT22;3657;49.630;11.018;2022-12-07T08:41:50;2.50;99.90
7232;DHT22;3657;49.630;11.018;2022-12-07T08:44:17;2.50;99.90
7232;DHT22;3657;49.630;11.018;2022-12-07T08:46:46;2.50;99.90
7232;DHT22;3657;49.630;11.018;2022-12-07T08:49:21;2.50;99.90
7232;DHT22;3657;49.630;11.018;2022-12-07T08:51:49;2.50;99.90
7232;DHT22;3657;49.630;11.018;2022-12-07T08:54:17;2.50;99.90
7232;DHT22;3657;49.630;11.018;2022-12-07T08:56:46;2.50;99.90
7232;DHT22;3657;49.630;11.018;2022-12-07T08:59:15;2.50;99.90
7232;DHT22;3657;49.630;11.018;2022-12-07T09:01:43;2.60;99.90
7232;DHT22;3657;49.630;11.018;2022-12-07T09:04:10;2.60;99.90
7232;DHT22;3657;49.630;11.018;2022-12-07T09:06:38;2.60;99.90
7232;DHT22;3657;49.630;11.018;2022-12-07T09:09:06;2.60;99.90
7232;DHT22;3657;49.630;11.018;2022-12-07T09:11:33;2.60;99.90
7232;DHT22;3657;49.630;11.018;2022-12-07T09:13:59;2.60;99.90
7232;DHT22;3657;49.630;11.018;2022-12-07T09:16:27;2.60;99.90
7232;DHT22;3657;49.630;11.018;2022-12-07T09:18:53;2.60;99.90
7232;DHT22;3657;49.630;11.018;2022-12-07T09:21:20;2.60;99.90
7232;DHT22;3657;49.630;11.018;2022-12-07T09:23:48;2.60;99.90
7232;DHT22;3657;49.630;11.018;2022-12-07T09:26:15;2.60;99.90
7232;DHT22;3657;49.630;11.018;2022-12-07T09:28:42;2.60;99.90
7232;DHT22;3657;49.630;11.018;2022-12-07T09:31:09;2.60;99.90
7232;DHT22;3657;49.630;11.018;2022-12-07T09:33:35;2.60;99.90
7232;DHT22;3657;49.630;11.018;2022-12-07T09:36:03;2.70;99.90
7232;DHT22;3657;49.630;11.018;2022-12-07T09:38:30;2.70;99.90
7232;DHT22;3657;49.630;11.018;2022-12-07T09:41:04;2.60;99.90
7232;DHT22;3657;49.630;11.018;2022-12-07T09:43:33;2.70;99.90
7232;DHT22;3657;49.630;11.018;2022-12-07T09:46:01;2.70;99.90
7232;DHT22;3657;49.630;11.018;2022-12-07T09:48:31;2.70;99.90
7232;DHT22;3657;49.630;11.018;2022-12-07T09:51:00;2.70;99.90
7232;DHT22;3657;49.630;11.018;2022-12-07T09:53:28;2.70;99.90
7232;DHT22;3657;49.630;11.018;2022-12-07T09:55:58;2.70;99.90
7232;DHT22;3657;49.630;11.018;2022-12-07T09:58:27;2.70;99.90
7232;DHT22;3657;49.630;11.018;2022-12-07T10:00:56;2.70;99.90
7232;DHT22;3657;49.630;11.018;2022-12-07T10:03:23;2.70;99.90
7232;DHT22;3657;49.630;11.018;2022-12-07T10:05:51;2.70;99.90
7232;DHT22;3657;49.630;11.018;2022-12-07T10:08:18;2.70;99.90
7232;DHT22;3657;49.630;11.018;2022-12-07T10:10:50;2.80;99.90
7232;DHT22;3657;49.630;11.018;2022-12-07T10:13:20;2.80;99.90
7232;DHT22;3657;49.630;11.018;2022-12-07T10:15:50;2.80;99.90
7232;DHT22;3657;49.630;11.018;2022-12-07T10:18:26;2.80;99.90
7232;DHT22;3657;49.630;11.018;2022-12-07T10:21:03;2.80;99.90
7232;DHT22;3657;49.630;11.018;2022-12-07T10:23:33;2.80;99.90
7232;DHT22;3657;49.630;11.018;2022-12-07T10:26:20;2.80;99.90
7232;DHT22;3657;49.630;11.018;2022-12-07T10:28:48;2.80;99.90
7232;DHT22;3657;49.630;11.018;2022-12-07T10:31:17;2.80;99.90
7232;DHT22;3657;49.630;11.018;2022-12-07T10:33:50;2.80;99.90
7232;DHT22;3657;49.630;11.018;2022-12-07T10:36:19;2.80;99.90
7232;DHT22;3657;49.630;11.018;2022-12-07T10:38:48;2.80;99.90
7232;DHT22;3657;49.630;11.018;2022-12-07T10:41:15;2.80;99.90
7232;DHT22;3657;49.630;11.018;2022-12-07T10:43:55;2.90;99.90
7232;DHT22;3657;49.630;11.018;2022-12-07T10:46:45;2.90;99.90
7232;DHT22;3657;49.630;11.018;2022-12-07T10:49:52;2.90;99.90
7232;DHT22;3657;49.630;11.018;2022-12-07T10:52:34;2.90;99.90
7232;DHT22;3657;49.630;11.018;2022-12-07T10:55:19;2.90;99.90
7232;DHT22;3657;49.630;11.018;2022-12-07T10:58:04;2.90;99.90
7232;DHT22;3657;49.630;11.018;2022-12-07T11:00:39;2.90;99.90
7232;DHT22;3657;49.630;11.018;2022-12-07T11:06:13;3.00;99.90
7232;DHT22;3657;49.630;11.018;2022-12-07T11:08:54;3.00;99.90
7232;DHT22;3657;49.630;11.018;2022-12-07T11:11:29;3.00;99.90
7232;DHT22;3657;49.630;11.018;2022-12-07T11:14:03;3.00;99.90
7232;DHT22;3657;49.630;11.018;2022-12-07T11:16:52;3.00;99.90
7232;DHT22;3657;49.630;11.018;2022-12-07T11:19:34;3.00;99.90
7232;DHT22;3657;49.630;11.018;2022-12-07T11:22:11;3.00;99.90
7232;DHT22;3657;49.630;11.018;2022-12-07T11:24:46;3.00;99.90
7232;DHT22;3657;49.630;11.018;2022-12-07T11:27:22;3.00;99.90
7232;DHT22;3657;49.630;11.018;2022-12-07T11:30:00;3.00;99.90
7232;DHT22;3657;49.630;11.018;2022-12-07T11:32:58;3.10;99.90
7232;DHT22;3657;49.630;11.018;2022-12-07T11:35:36;3.10;99.90
7232;DHT22;3657;49.630;11.018;2022-12-07T11:38:11;3.10;99.90
7232;DHT22;3657;49.630;11.018;2022-12-07T11:40:40;3.10;99.90
7232;DHT22;3657;49.630;11.018;2022-12-07T11:43:16;3.10;99.90
7232;DHT22;3657;49.630;11.018;2022-12-07T11:45:46;3.10;99.90
7232;DHT22;3657;49.630;11.018;2022-12-07T11:48:19;3.10;99.90
7232;DHT22;3657;49.630;11.018;2022-12-07T11:50:51;3.10;99.90
7232;DHT22;3657;49.630;11.018;2022-12-07T11:53:22;3.10;99.90
7232;DHT22;3657;49.630;11.018;2022-12-07T11:55:54;3.10;99.90
7232;DHT22;3657;49.630;11.018;2022-12-07T11:58:39;3.10;99.90
7232;DHT22;3657;49.630;11.018;2022-12-07T12:01:15;3.10;99.90
7232;DHT22;3657;49.630;11.018;2022-12-07T12:03:49;3.10;99.90
7232;DHT22;3657;49.630;11.018;2022-12-07T12:06:16;3.10;99.90
7232;DHT22;3657;49.630;11.018;2022-12-07T12:08:46;3.10;99.90
7232;DHT22;3657;49.630;11.018;2022-12-07T12:11:26;3.10;99.90
7232;DHT22;3657;49.630;11.018;2022-12-07T12:14:29;3.10;99.90
7232;DHT22;3657;49.630;11.018;2022-12-07T12:20:01;3.20;99.90
7232;DHT22;3657;49.630;11.018;2022-12-07T12:22:34;3.20;99.90
7232;DHT22;3657;49.630;11.018;2022-12-07T12:25:05;3.20;99.90
7232;DHT22;3657;49.630;11.018;2022-12-07T12:27:34;3.20;99.90
7232;DHT22;3657;49.630;11.018;2022-12-07T12:30:04;3.20;99.90
7232;DHT22;3657;49.630;11.018;2022-12-07T12:32:37;3.20;99.90
7232;DHT22;3657;49.630;11.018;2022-12-07T12:35:28;3.20;99.90
7232;DHT22;3657;49.630;11.018;2022-12-07T12:37:57;3.20;99.90
7232;DHT22;3657;49.630;11.018;2022-12-07T12:40:46;3.20;99.90
7232;DHT22;3657;49.630;11.018;2022-12-07T12:43:41;3.20;99.90
7232;DHT22;3657;49.630;11.018;2022-12-07T12:52:52;3.30;99.90
7232;DHT22;3657;49.630;11.018;2022-12-07T12:55:44;3.30;99.90
7232;DHT22;3657;49.630;11.018;2022-12-07T12:58:29;3.30;99.90
7232;DHT22;3657;49.630;11.018;2022-12-07T13:04:51;3.30;99.90
7232;DHT22;3657;49.630;11.018;2022-12-07T13:07:51;3.30;99.90
7232;DHT22;3657;49.630;11.018;2022-12-07T13:10:44;3.30;99.90
7232;DHT22;3657;49.630;11.018;2022-12-07T13:13:33;3.30;99.90
7232;DHT22;3657;49.630;11.018;2022-12-07T13:16:38;3.30;99.90
7232;DHT22;3657;49.630;11.018;2022-12-07T13:22:51;3.30;99.90
7232;DHT22;3657;49.630;11.018;2022-12-07T13:25:29;3.30;99.90
7232;DHT22;3657;49.630;11.018;2022-12-07T13:28:01;3.30;99.90
7232;DHT22;3657;49.630;11.018;2022-12-07T13:30:30;3.30;99.90
7232;DHT22;3657;49.630;11.018;2022-12-07T13:32:58;3.30;99.90
7232;DHT22;3657;49.630;11.018;2022-12-07T13:35:31;3.30;99.90
7232;DHT22;3657;49.630;11.018;2022-12-07T13:37:59;3.30;99.90
7232;DHT22;3657;49.630;11.018;2022-12-07T13:40:26;3.30;99.90
7232;DHT22;3657;49.630;11.018;2022-12-07T13:42:59;3.30;99.90
7232;DHT22;3657;49.630;11.018;2022-12-07T13:45:28;3.30;99.90
7232;DHT22;3657;49.630;11.018;2022-12-07T13:48:14;3.40;99.90
7232;DHT22;3657;49.630;11.018;2022-12-07T13:50:42;3.40;99.90
7232;DHT22;3657;49.630;11.018;2022-12-07T13:53:13;3.40;99.90
7232;DHT22;3657;49.630;11.018;2022-12-07T13:55:44;3.40;99.90
7232;DHT22;3657;49.630;11.018;2022-12-07T13:58:12;3.40;99.90
7232;DHT22;3657;49.630;11.018;2022-12-07T14:00:39;3.30;99.90
7232;DHT22;3657;49.630;11.018;2022-12-07T14:03:26;3.40;99.90
7232;DHT22;3657;49.630;11.018;2022-12-07T14:06:06;3.30;99.90
7232;DHT22;3657;49.630;11.018;2022-12-07T14:08:34;3.30;99.90
7232;DHT22;3657;49.630;11.018;2022-12-07T14:11:01;3.30;99.90
7232;DHT22;3657;49.630;11.018;2022-12-07T14:13:31;3.30;99.90
7232;DHT22;3657;49.630;11.018;2022-12-07T14:15:59;3.30;99.90
7232;DHT22;3657;49.630;11.018;2022-12-07T14:18:30;3.30;99.90
7232;DHT22;3657;49.630;11.018;2022-12-07T14:21:04;3.30;99.90
7232;DHT22;3657;49.630;11.018;2022-12-07T14:23:31;3.40;99.90
7232;DHT22;3657;49.630;11.018;2022-12-07T14:26:07;3.40;99.90
7232;DHT22;3657;49.630;11.018;2022-12-07T14:28:35;3.40;99.90
7232;DHT22;3657;49.630;11.018;2022-12-07T14:31:03;3.40;99.90
7232;DHT22;3657;49.630;11.018;2022-12-07T14:33:35;3.40;99.90
7232;DHT22;3657;49.630;11.018;2022-12-07T14:36:01;3.40;99.90
7232;DHT22;3657;49.630;11.018;2022-12-07T14:38:28;3.40;99.90
7232;DHT22;3657;49.630;11.018;2022-12-07T14:40:55;3.40;99.90
7232;DHT22;3657;49.630;11.018;2022-12-07T14:43:43;3.40;99.90
7232;DHT22;3657;49.630;11.018;2022-12-07T14:46:10;3.40;99.90
7232;DHT22;3657;49.630;11.018;2022-12-07T14:48:38;3.40;99.90
7232;DHT22;3657;49.630;11.018;2022-12-07T14:51:05;3.40;99.90
7232;DHT22;3657;49.630;11.018;2022-12-07T14:53:35;3.40;99.90
7232;DHT22;3657;49.630;11.018;2022-12-07T14:56:03;3.40;99.90
7232;DHT22;3657;49.630;11.018;2022-12-07T14:58:31;3.40;99.90
7232;DHT22;3657;49.630;11.018;2022-12-07T15:00:59;3.40;99.90
7232;DHT22;3657;49.630;11.018;2022-12-07T15:03:26;3.40;99.90
7232;DHT22;3657;49.630;11.018;2022-12-07T15:05:54;3.40;99.90
7232;DHT22;3657;49.630;11.018;2022-12-07T15:08:21;3.30;99.90
7232;DHT22;3657;49.630;11.018;2022-12-07T15:10:48;3.30;99.90
7232;DHT22;3657;49.630;11.018;2022-12-07T15:13:15;3.30;99.90
7232;DHT22;3657;49.630;11.018;2022-12-07T15:16:00;3.20;99.90
7232;DHT22;3657;49.630;11.018;2022-12-07T15:18:27;3.20;99.90
7232;DHT22;3657;49.630;11.018;2022-12-07T15:20:55;3.20;99.90
7232;DHT22;3657;49.630;11.018;2022-12-07T15:23:21;3.30;99.90
7232;DHT22;3657;49.630;11.018;2022-12-07T15:25:48;3.20;99.90
7232;DHT22;3657;49.630;11.018;2022-12-07T15:28:15;3.20;99.90
7232;DHT22;3657;49.630;11.018;2022-12-07T15:30:43;3.20;99.90
7232;DHT22;3657;49.630;11.018;2022-12-07T15:33:10;3.20;99.90
7232;DHT22;3657;49.630;11.018;2022-12-07T15:35:38;3.10;99.90
7232;DHT22;3657;49.630;11.018;2022-12-07T15:38:06;3.10;99.90
7232;DHT22;3657;49.630;11.018;2022-12-07T15:40:33;3.10;99.90
7232;DHT22;3657;49.630;11.018;2022-12-07T15:43:00;3.10;99.90
7232;DHT22;3657;49.630;11.018;2022-12-07T15:45:27;3.00;99.90
7232;DHT22;3657;49.630;11.018;2022-12-07T15:47:53;3.00;99.90
7232;DHT22;3657;49.630;11.018;2022-12-07T15:50:21;3.10;99.90
7232;DHT22;3657;49.630;11.018;2022-12-07T15:52:48;3.00;99.90
7232;DHT22;3657;49.630;11.018;2022-12-07T15:55:16;3.10;99.90
7232;DHT22;3657;49.630;11.018;2022-12-07T15:57:44;3.10;99.90
7232;DHT22;3657;49.630;11.018;2022-12-07T16:00:12;3.10;99.90
7232;DHT22;3657;49.630;11.018;2022-12-07T16:02:39;3.00;99.90
7232;DHT22;3657;49.630;11.018;2022-12-07T16:05:06;3.00;99.90
7232;DHT22;3657;49.630;11.018;2022-12-07T16:07:33;3.10;99.90
7232;DHT22;3657;49.630;11.018;2022-12-07T16:10:00;3.00;99.90
7232;DHT22;3657;49.630;11.018;2022-12-07T16:12:28;3.00;99.90
7232;DHT22;3657;49.630;11.018;2022-12-07T16:14:55;3.00;99.90
7232;DHT22;3657;49.630;11.018;2022-12-07T16:17:22;3.00;99.90
7232;DHT22;3657;49.630;11.018;2022-12-07T16:19:49;3.00;99.90
7232;DHT22;3657;49.630;11.018;2022-12-07T16:22:16;3.00;99.90
7232;DHT22;3657;49.630;11.018;2022-12-07T16:24:43;3.00;99.90
7232;DHT22;3657;49.630;11.018;2022-12-07T16:27:10;3.00;99.90
7232;DHT22;3657;49.630;11.018;2022-12-07T16:29:39;3.00;99.90
7232;DHT22;3657;49.630;11.018;2022-12-07T16:32:07;3.00;99.90
7232;DHT22;3657;49.630;11.018;2022-12-07T16:34:34;3.00;99.90
7232;DHT22;3657;49.630;11.018;2022-12-07T16:37:01;2.90;99.90
7232;DHT22;3657;49.630;11.018;2022-12-07T16:39:32;2.90;99.90
7232;DHT22;3657;49.630;11.018;2022-12-07T16:42:02;2.90;99.90
7232;DHT22;3657;49.630;11.018;2022-12-07T16:44:30;2.90;99.90
7232;DHT22;3657;49.630;11.018;2022-12-07T16:46:59;2.90;99.90